sensor_id;sensor_type;location;lat;lon;timestamp;pressure;altitude;pressure_sealevel;temperature;humidity
22440;BME280;11387;51.612;7.210;2023-01-24T00:01:26;102901.28;;;1.95;83.22
22440;BME280;11387;51.612;7.210;2023-01-24T00:03:55;102900.66;;;2.08;82.05
22440;BME280;11387;51.612;7.210;2023-01-24T00:06:25;102902.41;;;2.01;82.33
22440;BME280;11387;51.612;7.210;2023-01-24T00:08:54;102899.63;;;1.94;82.46
22440;BME280;11387;51.612;7.210;2023-01-24T00:11:22;102904.00;;;1.95;82.94
22440;BME280;11387;51.612;7.210;2023-01-24T00:13:51;102902.50;;;1.93;82.52
22440;BME280;11387;51.612;7.210;2023-01-24T00:16:20;102903.53;;;1.92;82.15
22440;BME280;11387;51.612;7.210;2023-01-24T00:18:50;102904.91;;;1.88;81.90
22440;BME280;11387;51.612;7.210;2023-01-24T00:21:20;102900.91;;;1.84;81.85
22440;BME280;11387;51.612;7.210;2023-01-24T00:23:52;102894.47;;;1.85;81.80
22440;BME280;11387;51.612;7.210;2023-01-24T00:26:23;102895.06;;;1.95;82.51
22440;BME280;11387;51.612;7.210;2023-01-24T00:28:52;102903.34;;;1.93;81.95
22440;BME280;11387;51.612;7.210;2023-01-24T00:31:21;102898.69;;;1.87;82.33
22440;BME280;11387;51.612;7.210;2023-01-24T00:33:49;102894.88;;;1.96;82.04
22440;BME280;11387;51.612;7.210;2023-01-24T00:36:18;102898.78;;;1.94;81.54
22440;BME280;11387;51.612;7.210;2023-01-24T00:38:47;102897.75;;;1.95;81.70
22440;BME280;11387;51.612;7.210;2023-01-24T00:41:17;102898.78;;;1.94;81.45
22440;BME280;11387;51.612;7.210;2023-01-24T00:43:45;102898.63;;;2.10;80.92
22440;BME280;11387;51.612;7.210;2023-01-24T00:46:13;102888.63;;;1.96;81.12
22440;BME280;11387;51.612;7.210;2023-01-24T00:48:42;102885.94;;;1.96;81.19
22440;BME280;11387;51.612;7.210;2023-01-24T00:51:11;102878.28;;;1.85;80.94
22440;BME280;11387;51.612;7.210;2023-01-24T00:53:39;102873.91;;;1.84;81.27
22440;BME280;11387;51.612;7.210;2023-01-24T00:56:08;102879.97;;;1.86;81.18
22440;BME280;11387;51.612;7.210;2023-01-24T00:58:38;102878.75;;;1.88;81.29
22440;BME280;11387;51.612;7.210;2023-01-24T01:01:06;102880.91;;;1.93;81.29
22440;BME280;11387;51.612;7.210;2023-01-24T01:03:35;102884.63;;;1.92;81.11
22440;BME280;11387;51.612;7.210;2023-01-24T01:06:06;102882.84;;;1.84;81.29
22440;BME280;11387;51.612;7.210;2023-01-24T01:08:35;102889.47;;;1.82;81.96
22440;BME280;11387;51.612;7.210;2023-01-24T01:11:04;102891.34;;;1.81;81.64
22440;BME280;11387;51.612;7.210;2023-01-24T01:13:33;102900.81;;;1.77;81.94
22440;BME280;11387;51.612;7.210;2023-01-24T01:16:05;102909.59;;;1.79;80.95
22440;BME280;11387;51.612;7.210;2023-01-24T01:18:35;102907.34;;;1.83;80.66
22440;BME280;11387;51.612;7.210;2023-01-24T01:21:04;102908.28;;;1.90;80.22
22440;BME280;11387;51.612;7.210;2023-01-24T01:23:33;102912.00;;;1.89;81.17
22440;BME280;11387;51.612;7.210;2023-01-24T01:26:04;102903.59;;;1.84;81.02
22440;BME280;11387;51.612;7.210;2023-01-24T01:28:33;102916.84;;;1.79;81.33
22440;BME280;11387;51.612;7.210;2023-01-24T01:31:02;102907.34;;;1.83;81.11
22440;BME280;11387;51.612;7.210;2023-01-24T01:33:32;102909.00;;;1.84;80.41
22440;BME280;11387;51.612;7.210;2023-01-24T01:36:01;102905.03;;;1.80;80.21
22440;BME280;11387;51.612;7.210;2023-01-24T01:38:29;102904.84;;;1.81;80.54
22440;BME280;11387;51.612;7.210;2023-01-24T01:40:58;102911.06;;;1.82;80.62
22440;BME280;11387;51.612;7.210;2023-01-24T01:43:29;102909.00;;;1.84;80.42
22440;BME280;11387;51.612;7.210;2023-01-24T01:46:00;102907.72;;;1.80;81.26
22440;BME280;11387;51.612;7.210;2023-01-24T01:48:38;102902.31;;;1.80;81.38
22440;BME280;11387;51.612;7.210;2023-01-24T01:51:14;102909.47;;;1.73;81.34
22440;BME280;11387;51.612;7.210;2023-01-24T01:53:49;102908.09;;;1.77;80.72
22440;BME280;11387;51.612;7.210;2023-01-24T01:56:23;102905.94;;;1.72;80.81
22440;BME280;11387;51.612;7.210;2023-01-24T01:58:56;102894.50;;;1.70;81.38
22440;BME280;11387;51.612;7.210;2023-01-24T02:01:26;102898.31;;;1.76;81.09
22440;BME280;11387;51.612;7.210;2023-01-24T02:04:00;102894.31;;;1.72;81.54
22440;BME280;11387;51.612;7.210;2023-01-24T02:06:46;102892.06;;;1.75;81.13
22440;BME280;11387;51.612;7.210;2023-01-24T02:09:20;102894.13;;;1.73;82.03
22440;BME280;11387;51.612;7.210;2023-01-24T02:11:52;102878.94;;;1.72;81.78
22440;BME280;11387;51.612;7.210;2023-01-24T02:14:23;102887.22;;;1.71;81.31
22440;BME280;11387;51.612;7.210;2023-01-24T02:17:10;102891.50;;;1.65;82.11
22440;BME280;11387;51.612;7.210;2023-01-24T02:19:58;102891.31;;;1.66;81.93
22440;BME280;11387;51.612;7.210;2023-01-24T02:22:34;102880.88;;;1.63;81.96
22440;BME280;11387;51.612;7.210;2023-01-24T02:25:09;102880.53;;;1.66;81.63
22440;BME280;11387;51.612;7.210;2023-01-24T02:27:42;102872.25;;;1.68;80.54
22440;BME280;11387;51.612;7.210;2023-01-24T02:30:11;102881.47;;;1.74;80.26
22440;BME280;11387;51.612;7.210;2023-01-24T02:32:40;102882.31;;;1.74;80.70
22440;BME280;11387;51.612;7.210;2023-01-24T02:35:22;102874.69;;;1.78;80.52
22440;BME280;11387;51.612;7.210;2023-01-24T02:37:51;102881.09;;;1.77;80.72
22440;BME280;11387;51.612;7.210;2023-01-24T02:40:20;102871.31;;;1.76;80.58
22440;BME280;11387;51.612;7.210;2023-01-24T02:42:51;102871.16;;;1.77;80.83
22440;BME280;11387;51.612;7.210;2023-01-24T02:45:22;102874.09;;;1.67;79.87
22440;BME280;11387;51.612;7.210;2023-01-24T02:47:54;102875.13;;;1.66;80.17
22440;BME280;11387;51.612;7.210;2023-01-24T02:50:25;102880.22;;;1.61;80.55
22440;BME280;11387;51.612;7.210;2023-01-24T02:52:54;102883.28;;;1.58;80.30
22440;BME280;11387;51.612;7.210;2023-01-24T02:55:40;102877.53;;;1.61;79.96
22440;BME280;11387;51.612;7.210;2023-01-24T02:58:25;102876.06;;;1.74;79.81
22440;BME280;11387;51.612;7.210;2023-01-24T03:00:53;102880.53;;;1.66;80.06
22440;BME280;11387;51.612;7.210;2023-01-24T03:03:22;102877.53;;;1.61;79.56
22440;BME280;11387;51.612;7.210;2023-01-24T03:05:51;102875.66;;;1.62;79.90
22440;BME280;11387;51.612;7.210;2023-01-24T03:08:25;102878.66;;;1.67;79.63
22440;BME280;11387;51.612;7.210;2023-01-24T03:10:55;102865.16;;;1.67;79.83
22440;BME280;11387;51.612;7.210;2023-01-24T03:13:25;102855.22;;;1.67;79.53
22440;BME280;11387;51.612;7.210;2023-01-24T03:16:12;102859.59;;;1.68;79.61
22440;BME280;11387;51.612;7.210;2023-01-24T03:18:59;102860.78;;;1.66;79.83
22440;BME280;11387;51.612;7.210;2023-01-24T03:21:46;102856.59;;;1.63;79.74
22440;BME280;11387;51.612;7.210;2023-01-24T03:24:32;102853.31;;;1.53;79.85
22440;BME280;11387;51.612;7.210;2023-01-24T03:27:19;102858.94;;;1.66;79.39
22440;BME280;11387;51.612;7.210;2023-01-24T03:30:08;102860.78;;;1.66;78.90
22440;BME280;11387;51.612;7.210;2023-01-24T03:32:57;102856.31;;;1.58;79.24
22440;BME280;11387;51.612;7.210;2023-01-24T03:35:43;102858.34;;;1.56;79.02
22440;BME280;11387;51.612;7.210;2023-01-24T03:38:21;102864.53;;;1.65;78.54
22440;BME280;11387;51.612;7.210;2023-01-24T03:41:08;102865.91;;;1.61;79.63
22440;BME280;11387;51.612;7.210;2023-01-24T03:43:36;102873.44;;;1.65;79.62
22440;BME280;11387;51.612;7.210;2023-01-24T03:46:06;102867.94;;;1.59;78.91
22440;BME280;11387;51.612;7.210;2023-01-24T03:48:35;102872.88;;;1.55;79.21
22440;BME280;11387;51.612;7.210;2023-01-24T03:51:04;102875.75;;;1.54;79.63
22440;BME280;11387;51.612;7.210;2023-01-24T03:53:50;102876.22;;;1.57;79.15
22440;BME280;11387;51.612;7.210;2023-01-24T03:56:19;102874.28;;;1.66;79.05
22440;BME280;11387;51.612;7.210;2023-01-24T03:58:47;102871.19;;;1.54;79.60
22440;BME280;11387;51.612;7.210;2023-01-24T04:01:17;102873.81;;;1.62;79.16
22440;BME280;11387;51.612;7.210;2023-01-24T04:03:46;102874.41;;;1.73;79.25
22440;BME280;11387;51.612;7.210;2023-01-24T04:06:14;102868.72;;;1.67;78.99
22440;BME280;11387;51.612;7.210;2023-01-24T04:08:44;102861.84;;;1.80;78.35
22440;BME280;11387;51.612;7.210;2023-01-24T04:11:13;102859.66;;;1.60;78.83
22440;BME280;11387;51.612;7.210;2023-01-24T04:13:41;102859.84;;;1.59;79.31
22440;BME280;11387;51.612;7.210;2023-01-24T04:16:10;102854.63;;;1.57;79.30
22440;BME280;11387;51.612;7.210;2023-01-24T04:18:43;102857.16;;;1.59;78.79
22440;BME280;11387;51.612;7.210;2023-01-24T04:21:11;102850.09;;;1.58;79.40
22440;BME280;11387;51.612;7.210;2023-01-24T04:23:40;102854.63;;;1.57;79.55
22440;BME280;11387;51.612;7.210;2023-01-24T04:26:09;102860.41;;;1.54;79.63
22440;BME280;11387;51.612;7.210;2023-01-24T04:28:37;102854.63;;;1.57;79.57
22440;BME280;11387;51.612;7.210;2023-01-24T04:31:05;102855.41;;;1.51;79.12
22440;BME280;11387;51.612;7.210;2023-01-24T04:33:34;102852.13;;;1.56;79.59
22440;BME280;11387;51.612;7.210;2023-01-24T04:36:05;102857.63;;;1.48;79.93
22440;BME280;11387;51.612;7.210;2023-01-24T04:38:34;102853.97;;;1.55;79.62
22440;BME280;11387;51.612;7.210;2023-01-24T04:41:02;102849.16;;;1.51;79.28
22440;BME280;11387;51.612;7.210;2023-01-24T04:43:31;102863.69;;;1.50;80.13
22440;BME280;11387;51.612;7.210;2023-01-24T04:45:59;102859.31;;;1.49;79.86
22440;BME280;11387;51.612;7.210;2023-01-24T04:48:27;102852.88;;;1.50;80.25
22440;BME280;11387;51.612;7.210;2023-01-24T04:50:59;102856.41;;;1.50;80.38
22440;BME280;11387;51.612;7.210;2023-01-24T04:53:30;102850.63;;;1.53;79.73
22440;BME280;11387;51.612;7.210;2023-01-24T04:56:01;102850.38;;;1.48;80.08
22440;BME280;11387;51.612;7.210;2023-01-24T04:58:29;102860.22;;;1.56;79.17
22440;BME280;11387;51.612;7.210;2023-01-24T05:00:59;102864.69;;;1.49;79.79
22440;BME280;11387;51.612;7.210;2023-01-24T05:03:30;102859.47;;;1.47;79.48
22440;BME280;11387;51.612;7.210;2023-01-24T05:05:59;102868.59;;;1.46;80.14
22440;BME280;11387;51.612;7.210;2023-01-24T05:08:27;102859.78;;;1.52;79.94
22440;BME280;11387;51.612;7.210;2023-01-24T05:11:01;102867.47;;;1.55;80.01
22440;BME280;11387;51.612;7.210;2023-01-24T05:13:30;102866.91;;;1.45;80.19
22440;BME280;11387;51.612;7.210;2023-01-24T05:15:59;102870.63;;;1.44;80.50
22440;BME280;11387;51.612;7.210;2023-01-24T05:18:27;102870.28;;;1.62;79.47
22440;BME280;11387;51.612;7.210;2023-01-24T05:21:04;102872.03;;;1.55;79.71
22440;BME280;11387;51.612;7.210;2023-01-24T05:23:33;102869.25;;;1.48;79.92
22440;BME280;11387;51.612;7.210;2023-01-24T05:26:03;102871.59;;;1.51;78.98
22440;BME280;11387;51.612;7.210;2023-01-24T05:28:32;102869.44;;;1.47;79.45
22440;BME280;11387;51.612;7.210;2023-01-24T05:31:02;102876.88;;;1.45;79.34
22440;BME280;11387;51.612;7.210;2023-01-24T05:33:31;102883.41;;;1.50;79.71
22440;BME280;11387;51.612;7.210;2023-01-24T05:36:01;102876.13;;;1.51;78.95
22440;BME280;11387;51.612;7.210;2023-01-24T05:38:30;102881.63;;;1.57;79.15
22440;BME280;11387;51.612;7.210;2023-01-24T05:41:01;102886.09;;;1.50;79.17
22440;BME280;11387;51.612;7.210;2023-01-24T05:43:31;102888.78;;;1.50;79.25
22440;BME280;11387;51.612;7.210;2023-01-24T05:46:01;102891.50;;;1.50;79.72
22440;BME280;11387;51.612;7.210;2023-01-24T05:48:30;102880.22;;;1.61;79.07
22440;BME280;11387;51.612;7.210;2023-01-24T05:50:59;102894.38;;;1.49;79.36
22440;BME280;11387;51.612;7.210;2023-01-24T05:53:29;102891.31;;;1.52;79.75
22440;BME280;11387;51.612;7.210;2023-01-24T05:56:00;102903.97;;;1.51;80.01
22440;BME280;11387;51.612;7.210;2023-01-24T05:58:33;102904.50;;;1.47;79.82
22440;BME280;11387;51.612;7.210;2023-01-24T06:01:06;102898.63;;;1.43;79.24
22440;BME280;11387;51.612;7.210;2023-01-24T06:03:36;102900.25;;;1.52;79.05
22440;BME280;11387;51.612;7.210;2023-01-24T06:06:06;102902.28;;;1.50;79.33
22440;BME280;11387;51.612;7.210;2023-01-24T06:08:35;102909.72;;;1.48;79.87
22440;BME280;11387;51.612;7.210;2023-01-24T06:11:05;102906.91;;;1.56;79.86
22440;BME280;11387;51.612;7.210;2023-01-24T06:13:35;102917.25;;;1.53;79.51
22440;BME280;11387;51.612;7.210;2023-01-24T06:16:05;102912.59;;;1.47;78.76
22440;BME280;11387;51.612;7.210;2023-01-24T06:18:34;102914.75;;;1.51;78.98
22440;BME280;11387;51.612;7.210;2023-01-24T06:21:07;102914.66;;;1.59;78.85
22440;BME280;11387;51.612;7.210;2023-01-24T06:23:37;102927.00;;;1.54;79.09
22440;BME280;11387;51.612;7.210;2023-01-24T06:26:08;102924.97;;;1.56;79.55
22440;BME280;11387;51.612;7.210;2023-01-24T06:28:39;102930.94;;;1.66;79.33
22440;BME280;11387;51.612;7.210;2023-01-24T06:31:18;102923.22;;;1.63;79.18
22440;BME280;11387;51.612;7.210;2023-01-24T06:34:00;102928.84;;;1.53;78.86
22440;BME280;11387;51.612;7.210;2023-01-24T06:36:44;102928.84;;;1.53;79.73
22440;BME280;11387;51.612;7.210;2023-01-24T06:39:16;102933.22;;;1.54;79.61
22440;BME280;11387;51.612;7.210;2023-01-24T06:41:45;102934.00;;;1.63;78.71
22440;BME280;11387;51.612;7.210;2023-01-24T06:44:16;102934.66;;;1.50;79.68
22440;BME280;11387;51.612;7.210;2023-01-24T06:46:44;102938.28;;;1.57;79.31
22440;BME280;11387;51.612;7.210;2023-01-24T06:49:13;102944.69;;;1.56;78.85
22440;BME280;11387;51.612;7.210;2023-01-24T06:51:42;102949.63;;;1.53;79.69
22440;BME280;11387;51.612;7.210;2023-01-24T06:54:10;102946.38;;;1.57;78.70
22440;BME280;11387;51.612;7.210;2023-01-24T06:56:39;102949.50;;;1.46;78.94
22440;BME280;11387;51.612;7.210;2023-01-24T06:59:07;102951.28;;;1.54;78.97
22440;BME280;11387;51.612;7.210;2023-01-24T07:01:37;102953.34;;;1.52;78.13
22440;BME280;11387;51.612;7.210;2023-01-24T07:04:06;102955.16;;;1.37;79.05
22440;BME280;11387;51.612;7.210;2023-01-24T07:06:34;102949.41;;;1.40;79.19
22440;BME280;11387;51.612;7.210;2023-01-24T07:09:03;102949.06;;;1.57;79.10
22440;BME280;11387;51.612;7.210;2023-01-24T07:11:32;102953.34;;;1.52;78.27
22440;BME280;11387;51.612;7.210;2023-01-24T07:14:01;102959.59;;;1.52;78.86
22440;BME280;11387;51.612;7.210;2023-01-24T07:16:31;102961.97;;;1.47;78.93
22440;BME280;11387;51.612;7.210;2023-01-24T07:19:02;102962.28;;;1.52;78.44
22440;BME280;11387;51.612;7.210;2023-01-24T07:21:30;102963.84;;;1.47;79.20
22440;BME280;11387;51.612;7.210;2023-01-24T07:24:01;102957.50;;;1.54;79.29
22440;BME280;11387;51.612;7.210;2023-01-24T07:26:30;102970.06;;;1.47;78.29
22440;BME280;11387;51.612;7.210;2023-01-24T07:28:59;102956.69;;;1.54;78.46
22440;BME280;11387;51.612;7.210;2023-01-24T07:31:27;102956.88;;;1.52;78.37
22440;BME280;11387;51.612;7.210;2023-01-24T07:33:56;102964.59;;;1.55;78.73
22440;BME280;11387;51.612;7.210;2023-01-24T07:36:26;102957.63;;;1.61;78.52
22440;BME280;11387;51.612;7.210;2023-01-24T07:38:54;102968.41;;;1.46;78.66
22440;BME280;11387;51.612;7.210;2023-01-24T07:41:23;102964.03;;;1.60;78.33
22440;BME280;11387;51.612;7.210;2023-01-24T07:43:52;102967.03;;;1.50;78.57
22440;BME280;11387;51.612;7.210;2023-01-24T07:46:21;102979.09;;;1.54;79.00
22440;BME280;11387;51.612;7.210;2023-01-24T07:48:49;102974.53;;;1.55;78.22
22440;BME280;11387;51.612;7.210;2023-01-24T07:51:17;102986.16;;;1.55;78.92
22440;BME280;11387;51.612;7.210;2023-01-24T07:53:48;102983.47;;;1.55;78.28
22440;BME280;11387;51.612;7.210;2023-01-24T07:56:16;102987.56;;;1.51;78.63
22440;BME280;11387;51.612;7.210;2023-01-24T07:58:52;102990.63;;;1.48;78.64
22440;BME280;11387;51.612;7.210;2023-01-24T08:01:23;102985.44;;;1.61;78.85
22440;BME280;11387;51.612;7.210;2023-01-24T08:03:54;102991.38;;;1.57;78.75
22440;BME280;11387;51.612;7.210;2023-01-24T08:06:23;102988.31;;;1.60;78.45
22440;BME280;11387;51.612;7.210;2023-01-24T08:08:53;102989.53;;;1.57;78.53
22440;BME280;11387;51.612;7.210;2023-01-24T08:11:21;102989.25;;;1.52;78.70
22440;BME280;11387;51.612;7.210;2023-01-24T08:13:50;103002.00;;;1.58;78.76
22440;BME280;11387;51.612;7.210;2023-01-24T08:16:19;102999.00;;;1.53;78.66
22440;BME280;11387;51.612;7.210;2023-01-24T08:18:54;102997.81;;;1.56;78.84
22440;BME280;11387;51.612;7.210;2023-01-24T08:21:26;103004.59;;;1.52;78.59
22440;BME280;11387;51.612;7.210;2023-01-24T08:23:57;103009.19;;;1.66;77.75
22440;BME280;11387;51.612;7.210;2023-01-24T08:26:25;103007.41;;;1.58;78.39
22440;BME280;11387;51.612;7.210;2023-01-24T08:29:09;103009.69;;;1.69;78.13
22440;BME280;11387;51.612;7.210;2023-01-24T08:31:37;103009.31;;;1.73;77.36
22440;BME280;11387;51.612;7.210;2023-01-24T08:34:06;103005.16;;;1.85;77.47
22440;BME280;11387;51.612;7.210;2023-01-24T08:36:35;103006.25;;;1.76;76.79
22440;BME280;11387;51.612;7.210;2023-01-24T08:39:05;103010.16;;;1.73;77.99
22440;BME280;11387;51.612;7.210;2023-01-24T08:41:35;103013.56;;;1.67;77.53
22440;BME280;11387;51.612;7.210;2023-01-24T08:44:04;103019.75;;;1.76;77.12
22440;BME280;11387;51.612;7.210;2023-01-24T08:46:35;103027.84;;;1.76;76.73
22440;BME280;11387;51.612;7.210;2023-01-24T08:49:03;103022.94;;;1.94;76.74
22440;BME280;11387;51.612;7.210;2023-01-24T08:51:32;103020.91;;;1.96;75.68
22440;BME280;11387;51.612;7.210;2023-01-24T08:54:00;103018.47;;;1.86;76.09
22440;BME280;11387;51.612;7.210;2023-01-24T08:56:30;103031.88;;;1.80;76.50
22440;BME280;11387;51.612;7.210;2023-01-24T08:58:59;103026.97;;;1.98;76.44
22440;BME280;11387;51.612;7.210;2023-01-24T09:01:30;103026.00;;;1.91;75.94
22440;BME280;11387;51.612;7.210;2023-01-24T09:04:01;103023.66;;;2.11;76.02
22440;BME280;11387;51.612;7.210;2023-01-24T09:06:33;103030.03;;;1.95;76.35
22440;BME280;11387;51.612;7.210;2023-01-24T09:09:03;103032.06;;;1.93;76.50
22440;BME280;11387;51.612;7.210;2023-01-24T09:11:37;103028.47;;;2.00;74.93
22440;BME280;11387;51.612;7.210;2023-01-24T09:14:06;103035.28;;;2.11;75.97
22440;BME280;11387;51.612;7.210;2023-01-24T09:16:35;103034.63;;;2.09;75.33
22440;BME280;11387;51.612;7.210;2023-01-24T09:19:04;103036.97;;;2.12;76.22
22440;BME280;11387;51.612;7.210;2023-01-24T09:21:35;103036.56;;;2.15;75.34
22440;BME280;11387;51.612;7.210;2023-01-24T09:24:06;103040.50;;;2.13;75.63
22440;BME280;11387;51.612;7.210;2023-01-24T09:26:38;103037.94;;;2.34;74.75
22440;BME280;11387;51.612;7.210;2023-01-24T09:29:08;103045.09;;;2.27;74.61
22440;BME280;11387;51.612;7.210;2023-01-24T09:31:40;103041.97;;;2.15;74.46
22440;BME280;11387;51.612;7.210;2023-01-24T09:34:10;103045.91;;;2.27;74.30
22440;BME280;11387;51.612;7.210;2023-01-24T09:36:40;103043.81;;;2.38;74.81
22440;BME280;11387;51.612;7.210;2023-01-24T09:39:09;103036.63;;;2.30;75.16
22440;BME280;11387;51.612;7.210;2023-01-24T09:41:47;103043.50;;;2.32;74.29
22440;BME280;11387;51.612;7.210;2023-01-24T09:44:39;103039.91;;;2.40;73.57
22440;BME280;11387;51.612;7.210;2023-01-24T09:47:17;103044.53;;;2.31;74.23
22440;BME280;11387;51.612;7.210;2023-01-24T09:49:50;103049.16;;;2.23;74.11
22440;BME280;11387;51.612;7.210;2023-01-24T09:52:27;103044.78;;;2.07;74.50
22440;BME280;11387;51.612;7.210;2023-01-24T09:55:03;103050.28;;;2.14;75.53
22440;BME280;11387;51.612;7.210;2023-01-24T09:57:46;103054.91;;;2.43;74.83
22440;BME280;11387;51.612;7.210;2023-01-24T10:00:23;103056.66;;;2.65;74.21
22440;BME280;11387;51.612;7.210;2023-01-24T10:02:55;103050.69;;;2.55;74.07
22440;BME280;11387;51.612;7.210;2023-01-24T10:05:34;103053.03;;;2.43;74.52
22440;BME280;11387;51.612;7.210;2023-01-24T10:08:12;103051.69;;;2.24;75.36
22440;BME280;11387;51.612;7.210;2023-01-24T10:10:45;103047.78;;;2.27;75.13
22440;BME280;11387;51.612;7.210;2023-01-24T10:19:36;103048.25;;;2.30;74.72
22440;BME280;11387;51.612;7.210;2023-01-24T10:22:21;103055.03;;;2.12;75.18
22440;BME280;11387;51.612;7.210;2023-01-24T10:24:57;103048.34;;;2.22;75.67
22440;BME280;11387;51.612;7.210;2023-01-24T10:27:31;103053.38;;;2.25;75.76
22440;BME280;11387;51.612;7.210;2023-01-24T10:30:16;103044.47;;;2.40;74.85
22440;BME280;11387;51.612;7.210;2023-01-24T10:32:54;103045.44;;;2.24;75.08
22440;BME280;11387;51.612;7.210;2023-01-24T10:35:29;103044.81;;;2.36;74.99
22440;BME280;11387;51.612;7.210;2023-01-24T10:38:05;103046.28;;;2.24;74.91
22440;BME280;11387;51.612;7.210;2023-01-24T10:40:48;103036.91;;;2.35;74.76
22440;BME280;11387;51.612;7.210;2023-01-24T10:43:23;103039.34;;;2.59;74.27
22440;BME280;11387;51.612;7.210;2023-01-24T10:46:13;103042.13;;;2.66;73.59
22440;BME280;11387;51.612;7.210;2023-01-24T10:48:49;103045.94;;;2.86;73.48
22440;BME280;11387;51.612;7.210;2023-01-24T10:51:23;103038.84;;;2.85;72.97
22440;BME280;11387;51.612;7.210;2023-01-24T10:53:55;103042.31;;;2.64;73.62
22440;BME280;11387;51.612;7.210;2023-01-24T10:56:29;103034.50;;;2.69;74.14
22440;BME280;11387;51.612;7.210;2023-01-24T10:59:00;103027.41;;;2.68;72.76
22440;BME280;11387;51.612;7.210;2023-01-24T11:01:36;103034.88;;;2.66;72.77
22440;BME280;11387;51.612;7.210;2023-01-24T11:04:15;103029.34;;;2.60;73.01
22440;BME280;11387;51.612;7.210;2023-01-24T11:06:51;103030.09;;;2.83;73.05
22440;BME280;11387;51.612;7.210;2023-01-24T11:09:21;103032.03;;;3.04;72.71
22440;BME280;11387;51.612;7.210;2023-01-24T11:11:54;103038.19;;;2.98;72.41
22440;BME280;11387;51.612;7.210;2023-01-24T11:14:28;103029.56;;;2.73;72.90
22440;BME280;11387;51.612;7.210;2023-01-24T11:17:02;103022.28;;;2.59;73.73
22440;BME280;11387;51.612;7.210;2023-01-24T11:19:36;103035.69;;;2.52;74.18
22440;BME280;11387;51.612;7.210;2023-01-24T11:22:19;103027.78;;;2.36;73.98
22440;BME280;11387;51.612;7.210;2023-01-24T11:24:49;103016.41;;;2.41;73.97
22440;BME280;11387;51.612;7.210;2023-01-24T11:27:21;103020.78;;;2.71;73.49
22440;BME280;11387;51.612;7.210;2023-01-24T11:30:06;103024.31;;;2.57;73.22
22440;BME280;11387;51.612;7.210;2023-01-24T11:32:45;103012.09;;;2.46;73.31
22440;BME280;11387;51.612;7.210;2023-01-24T11:35:19;103012.78;;;2.63;74.06
22440;BME280;11387;51.612;7.210;2023-01-24T11:38:01;103011.38;;;2.52;73.79
22440;BME280;11387;51.612;7.210;2023-01-24T11:40:36;103005.31;;;2.65;73.97
22440;BME280;11387;51.612;7.210;2023-01-24T11:43:20;103010.44;;;2.60;73.25
22440;BME280;11387;51.612;7.210;2023-01-24T11:46:27;103008.47;;;2.54;74.15
22440;BME280;11387;51.612;7.210;2023-01-24T11:49:22;103009.59;;;2.30;74.02
22440;BME280;11387;51.612;7.210;2023-01-24T11:52:03;103000.22;;;2.41;73.61
22440;BME280;11387;51.612;7.210;2023-01-24T11:54:45;103004.19;;;2.74;72.63
22440;BME280;11387;51.612;7.210;2023-01-24T11:57:26;103000.72;;;2.80;72.99
22440;BME280;11387;51.612;7.210;2023-01-24T12:00:16;102996.88;;;3.04;72.04
22440;BME280;11387;51.612;7.210;2023-01-24T12:03:14;102997.75;;;3.11;71.28
22440;BME280;11387;51.612;7.210;2023-01-24T12:05:52;102985.44;;;3.23;71.14
22440;BME280;11387;51.612;7.210;2023-01-24T12:08:35;102980.41;;;3.20;71.07
22440;BME280;11387;51.612;7.210;2023-01-24T12:11:13;102986.00;;;3.19;71.02
22440;BME280;11387;51.612;7.210;2023-01-24T12:14:16;102984.94;;;3.34;71.79
22440;BME280;11387;51.612;7.210;2023-01-24T12:16:57;102973.75;;;3.44;70.44
22440;BME280;11387;51.612;7.210;2023-01-24T12:20:02;102965.63;;;3.01;70.77
22440;BME280;11387;51.612;7.210;2023-01-24T12:23:11;102974.50;;;2.95;71.86
22440;BME280;11387;51.612;7.210;2023-01-24T12:25:45;102964.63;;;3.02;71.38
22440;BME280;11387;51.612;7.210;2023-01-24T12:28:22;102961.63;;;2.97;71.13
22440;BME280;11387;51.612;7.210;2023-01-24T12:30:57;102962.63;;;2.75;72.49
22440;BME280;11387;51.612;7.210;2023-01-24T12:33:32;102957.28;;;2.82;73.01
22440;BME280;11387;51.612;7.210;2023-01-24T12:36:16;102948.22;;;2.89;72.10
22440;BME280;11387;51.612;7.210;2023-01-24T12:38:54;102946.25;;;2.98;72.31
22440;BME280;11387;51.612;7.210;2023-01-24T12:41:31;102941.34;;;2.87;72.44
22440;BME280;11387;51.612;7.210;2023-01-24T12:44:05;102944.50;;;2.90;72.06
22440;BME280;11387;51.612;7.210;2023-01-24T12:46:46;102941.91;;;2.82;72.12
22440;BME280;11387;51.612;7.210;2023-01-24T12:49:26;102936.66;;;2.95;72.00
22440;BME280;11387;51.612;7.210;2023-01-24T12:52:19;102935.09;;;3.08;71.02
22440;BME280;11387;51.612;7.210;2023-01-24T12:55:00;102933.69;;;2.90;71.07
22440;BME280;11387;51.612;7.210;2023-01-24T12:57:37;102919.22;;;2.98;72.05
22440;BME280;11387;51.612;7.210;2023-01-24T13:00:16;102927.13;;;2.99;71.57
22440;BME280;11387;51.612;7.210;2023-01-24T13:03:20;102919.50;;;2.88;71.67
22440;BME280;11387;51.612;7.210;2023-01-24T13:06:02;102926.50;;;3.19;70.99
22440;BME280;11387;51.612;7.210;2023-01-24T13:08:42;102923.59;;;3.20;71.42
22440;BME280;11387;51.612;7.210;2023-01-24T13:11:21;102926.59;;;3.53;70.67
22440;BME280;11387;51.612;7.210;2023-01-24T13:14:06;102925.28;;;3.70;69.59
22440;BME280;11387;51.612;7.210;2023-01-24T13:16:51;102915.53;;;3.48;70.07
22440;BME280;11387;51.612;7.210;2023-01-24T13:19:36;102914.22;;;3.44;69.80
22440;BME280;11387;51.612;7.210;2023-01-24T13:22:22;102917.59;;;3.25;70.16
22440;BME280;11387;51.612;7.210;2023-01-24T13:25:02;102915.44;;;2.78;72.00
22440;BME280;11387;51.612;7.210;2023-01-24T13:27:43;102924.63;;;2.62;73.31
22440;BME280;11387;51.612;7.210;2023-01-24T13:30:28;102916.63;;;2.54;72.94
22440;BME280;11387;51.612;7.210;2023-01-24T13:33:07;102915.97;;;2.52;72.86
22440;BME280;11387;51.612;7.210;2023-01-24T13:35:49;102915.88;;;2.60;73.10
22440;BME280;11387;51.612;7.210;2023-01-24T13:38:23;102908.03;;;2.65;73.28
22440;BME280;11387;51.612;7.210;2023-01-24T13:41:01;102910.34;;;2.68;73.88